This is the latest recevied weather packets stored in our database for station/object M7PDA-1. If no packets are shown the sender has not sent any weather packets the latest 10 day(s).
| Time | Temp. | Humidity | Pressure | Rain* | Wind** | Luminosity | Snow |
|---|---|---|---|---|---|---|---|
| 1777596535 | 11.11° C | 49% | 1022.9 hPa | - | - | - | - |
| 1777595634 | 11.11° C | 49% | 1023 hPa | - | - | - | - |
| 1777594733 | 11.11° C | 50% | 1023.1 hPa | - | - | - | - |
| 1777593832 | 11.11° C | 51% | 1023.2 hPa | - | - | - | - |
| 1777592932 | 11.11° C | 51% | 1023.2 hPa | - | - | - | - |
| 1777592031 | 10.56° C | 54% | 1023.1 hPa | - | - | - | - |
| 1777591130 | 11.11° C | 53% | 1023.1 hPa | - | - | - | - |
| 1777590229 | 11.11° C | 54% | 1023.2 hPa | - | - | - | - |
| 1777589328 | 11.67° C | 53% | 1023.2 hPa | - | - | - | - |
| 1777588428 | 11.67° C | 54% | 1023.1 hPa | - | - | - | - |
| 1777587527 | 11.67° C | 54% | 1023.2 hPa | - | - | - | - |
| 1777586626 | 11.67° C | 54% | 1023.3 hPa | - | - | - | - |
| 1777585725 | 12.22° C | 53% | 1023.2 hPa | - | - | - | - |
| 1777584825 | 12.78° C | 53% | 1023.1 hPa | - | - | - | - |
| 1777583924 | 12.78° C | 54% | 1023.2 hPa | - | - | - | - |
| 1777583023 | 12.78° C | 54% | 1023.2 hPa | - | - | - | - |
| 1777582122 | 13.89° C | 51% | 1023 hPa | - | - | - | - |
| 1777581221 | 14.44° C | 48% | 1022.9 hPa | - | - | - | - |
| 1777580320 | 15° C | 48% | 1022.5 hPa | - | - | - | - |
| 1777579419 | 15.56° C | 45% | 1022.5 hPa | - | - | - | - |
| 1777578519 | 16.67° C | 38% | 1022.3 hPa | - | - | - | - |
| 1777577618 | 17.22° C | 38% | 1022 hPa | - | - | - | - |
| 1777576717 | 17.78° C | 38% | 1022 hPa | - | - | - | - |
| 1777575816 | 17.78° C | 37% | 1021.8 hPa | - | - | - | - |
| 1777574916 | 18.33° C | 33% | 1021.7 hPa | - | - | - | - |
* Rain since midnight (hover to see other rain measurements)
** Current wind speed in m/s (hover to see current wind gust speed)